sensor_id;sensor_type;location;lat;lon;timestamp;temperature;humidity
4461;DHT22;2243;48.812;9.232;2023-07-08T00:01:22;22.90;71.40
4461;DHT22;2243;48.812;9.232;2023-07-08T00:03:53;22.80;73.20
4461;DHT22;2243;48.812;9.232;2023-07-08T00:06:27;22.70;71.70
4461;DHT22;2243;48.812;9.232;2023-07-08T00:08:58;22.70;73.00
4461;DHT22;2243;48.812;9.232;2023-07-08T00:11:29;22.80;73.60
4461;DHT22;2243;48.812;9.232;2023-07-08T00:14:00;22.80;74.50
4461;DHT22;2243;48.812;9.232;2023-07-08T00:16:31;22.70;72.60
4461;DHT22;2243;48.812;9.232;2023-07-08T00:19:08;22.60;73.80
4461;DHT22;2243;48.812;9.232;2023-07-08T00:21:40;22.50;74.80
4461;DHT22;2243;48.812;9.232;2023-07-08T00:24:11;22.60;74.90
4461;DHT22;2243;48.812;9.232;2023-07-08T00:26:42;22.60;73.00
4461;DHT22;2243;48.812;9.232;2023-07-08T00:29:16;22.50;71.40
4461;DHT22;2243;48.812;9.232;2023-07-08T00:31:47;22.40;71.90
4461;DHT22;2243;48.812;9.232;2023-07-08T00:34:18;22.40;73.30
4461;DHT22;2243;48.812;9.232;2023-07-08T00:36:49;22.30;75.30
4461;DHT22;2243;48.812;9.232;2023-07-08T00:39:20;22.30;73.20
4461;DHT22;2243;48.812;9.232;2023-07-08T00:41:52;22.30;74.00
4461;DHT22;2243;48.812;9.232;2023-07-08T00:44:24;22.30;74.40
4461;DHT22;2243;48.812;9.232;2023-07-08T00:47:02;22.20;74.00
4461;DHT22;2243;48.812;9.232;2023-07-08T00:50:02;22.10;72.70
4461;DHT22;2243;48.812;9.232;2023-07-08T00:52:36;22.10;75.30
4461;DHT22;2243;48.812;9.232;2023-07-08T00:55:08;22.00;74.70
4461;DHT22;2243;48.812;9.232;2023-07-08T00:57:42;22.00;75.10
4461;DHT22;2243;48.812;9.232;2023-07-08T01:00:16;21.90;75.20
4461;DHT22;2243;48.812;9.232;2023-07-08T01:02:54;21.90;76.50
4461;DHT22;2243;48.812;9.232;2023-07-08T01:05:27;21.90;76.60
4461;DHT22;2243;48.812;9.232;2023-07-08T01:08:02;21.80;75.80
4461;DHT22;2243;48.812;9.232;2023-07-08T01:11:21;21.80;76.40
4461;DHT22;2243;48.812;9.232;2023-07-08T01:13:38;21.80;77.00
4461;DHT22;2243;48.812;9.232;2023-07-08T01:16:13;21.70;77.10
4461;DHT22;2243;48.812;9.232;2023-07-08T01:18:45;21.80;75.70
4461;DHT22;2243;48.812;9.232;2023-07-08T01:21:33;21.80;76.10
4461;DHT22;2243;48.812;9.232;2023-07-08T01:24:09;21.80;76.30
4461;DHT22;2243;48.812;9.232;2023-07-08T01:26:43;21.80;76.30
4461;DHT22;2243;48.812;9.232;2023-07-08T01:29:15;21.80;75.10
4461;DHT22;2243;48.812;9.232;2023-07-08T01:31:46;21.60;76.50
4461;DHT22;2243;48.812;9.232;2023-07-08T01:34:19;21.60;76.10
4461;DHT22;2243;48.812;9.232;2023-07-08T01:36:53;21.50;76.70
4461;DHT22;2243;48.812;9.232;2023-07-08T01:39:28;21.50;78.40
4461;DHT22;2243;48.812;9.232;2023-07-08T01:42:00;21.50;78.60
4461;DHT22;2243;48.812;9.232;2023-07-08T01:44:35;21.50;76.00
4461;DHT22;2243;48.812;9.232;2023-07-08T01:47:15;21.40;77.50
4461;DHT22;2243;48.812;9.232;2023-07-08T01:49:49;21.40;77.20
4461;DHT22;2243;48.812;9.232;2023-07-08T01:52:20;21.40;77.70
4461;DHT22;2243;48.812;9.232;2023-07-08T01:54:57;21.40;76.70
4461;DHT22;2243;48.812;9.232;2023-07-08T01:57:28;21.20;77.50
4461;DHT22;2243;48.812;9.232;2023-07-08T01:59:59;21.20;78.70
4461;DHT22;2243;48.812;9.232;2023-07-08T02:02:30;21.20;77.80
4461;DHT22;2243;48.812;9.232;2023-07-08T02:05:01;21.10;76.80
4461;DHT22;2243;48.812;9.232;2023-07-08T02:07:32;21.00;78.20
4461;DHT22;2243;48.812;9.232;2023-07-08T02:10:03;21.00;78.10
4461;DHT22;2243;48.812;9.232;2023-07-08T02:12:35;20.90;79.80
4461;DHT22;2243;48.812;9.232;2023-07-08T02:15:07;20.90;80.20
4461;DHT22;2243;48.812;9.232;2023-07-08T02:17:39;20.90;79.90
4461;DHT22;2243;48.812;9.232;2023-07-08T02:20:11;20.90;79.90
4461;DHT22;2243;48.812;9.232;2023-07-08T02:22:42;20.90;79.60
4461;DHT22;2243;48.812;9.232;2023-07-08T02:25:13;20.80;81.10
4461;DHT22;2243;48.812;9.232;2023-07-08T02:27:44;20.80;81.20
4461;DHT22;2243;48.812;9.232;2023-07-08T02:30:15;20.80;82.00
4461;DHT22;2243;48.812;9.232;2023-07-08T02:32:46;20.80;81.30
4461;DHT22;2243;48.812;9.232;2023-07-08T02:35:29;20.80;81.20
4461;DHT22;2243;48.812;9.232;2023-07-08T02:38:01;20.70;81.20
4461;DHT22;2243;48.812;9.232;2023-07-08T02:40:33;20.50;82.00
4461;DHT22;2243;48.812;9.232;2023-07-08T02:43:05;20.40;81.30
4461;DHT22;2243;48.812;9.232;2023-07-08T02:45:36;20.40;82.80
4461;DHT22;2243;48.812;9.232;2023-07-08T02:48:07;20.60;81.20
4461;DHT22;2243;48.812;9.232;2023-07-08T02:50:38;20.50;81.50
4461;DHT22;2243;48.812;9.232;2023-07-08T02:53:09;20.50;82.00
4461;DHT22;2243;48.812;9.232;2023-07-08T02:55:40;20.50;81.90
4461;DHT22;2243;48.812;9.232;2023-07-08T02:58:13;20.50;82.00
4461;DHT22;2243;48.812;9.232;2023-07-08T03:00:44;20.50;82.00
4461;DHT22;2243;48.812;9.232;2023-07-08T03:03:14;20.40;81.60
4461;DHT22;2243;48.812;9.232;2023-07-08T03:06:01;20.40;81.40
4461;DHT22;2243;48.812;9.232;2023-07-08T03:08:33;20.40;82.70
4461;DHT22;2243;48.812;9.232;2023-07-08T03:11:06;20.50;81.10
4461;DHT22;2243;48.812;9.232;2023-07-08T03:13:38;20.50;81.50
4461;DHT22;2243;48.812;9.232;2023-07-08T03:16:09;20.50;81.40
4461;DHT22;2243;48.812;9.232;2023-07-08T03:18:43;20.50;82.60
4461;DHT22;2243;48.812;9.232;2023-07-08T03:21:18;20.60;83.20
4461;DHT22;2243;48.812;9.232;2023-07-08T03:23:50;20.70;83.60
4461;DHT22;2243;48.812;9.232;2023-07-08T03:26:24;20.70;81.90
4461;DHT22;2243;48.812;9.232;2023-07-08T03:28:56;20.70;83.10
4461;DHT22;2243;48.812;9.232;2023-07-08T03:31:27;20.80;81.50
4461;DHT22;2243;48.812;9.232;2023-07-08T03:33:58;20.80;83.50
4461;DHT22;2243;48.812;9.232;2023-07-08T03:36:29;20.80;83.80
4461;DHT22;2243;48.812;9.232;2023-07-08T03:39:00;20.80;83.70
4461;DHT22;2243;48.812;9.232;2023-07-08T03:41:31;20.90;84.10
4461;DHT22;2243;48.812;9.232;2023-07-08T03:44:03;20.80;83.50
4461;DHT22;2243;48.812;9.232;2023-07-08T03:46:34;20.80;85.00
4461;DHT22;2243;48.812;9.232;2023-07-08T03:49:05;20.80;83.90
4461;DHT22;2243;48.812;9.232;2023-07-08T03:51:39;21.00;82.60
4461;DHT22;2243;48.812;9.232;2023-07-08T03:54:12;20.90;83.30
4461;DHT22;2243;48.812;9.232;2023-07-08T03:56:44;21.00;83.20
4461;DHT22;2243;48.812;9.232;2023-07-08T03:59:15;20.90;83.00
4461;DHT22;2243;48.812;9.232;2023-07-08T04:01:46;21.00;81.50
4461;DHT22;2243;48.812;9.232;2023-07-08T04:04:17;21.00;82.00
4461;DHT22;2243;48.812;9.232;2023-07-08T04:06:49;20.90;83.20
4461;DHT22;2243;48.812;9.232;2023-07-08T04:09:21;20.90;81.60
4461;DHT22;2243;48.812;9.232;2023-07-08T04:11:52;20.90;83.00
4461;DHT22;2243;48.812;9.232;2023-07-08T04:14:24;20.90;83.60
4461;DHT22;2243;48.812;9.232;2023-07-08T04:16:57;20.90;83.60
4461;DHT22;2243;48.812;9.232;2023-07-08T04:19:29;20.90;83.10
4461;DHT22;2243;48.812;9.232;2023-07-08T04:22:01;20.90;84.50
4461;DHT22;2243;48.812;9.232;2023-07-08T04:24:32;20.90;83.30
4461;DHT22;2243;48.812;9.232;2023-07-08T04:27:04;21.10;83.90
4461;DHT22;2243;48.812;9.232;2023-07-08T04:29:35;21.20;83.10
4461;DHT22;2243;48.812;9.232;2023-07-08T04:32:06;21.20;83.00
4461;DHT22;2243;48.812;9.232;2023-07-08T04:34:38;21.20;82.80
4461;DHT22;2243;48.812;9.232;2023-07-08T04:37:11;21.20;82.90
4461;DHT22;2243;48.812;9.232;2023-07-08T04:39:46;21.20;83.40
4461;DHT22;2243;48.812;9.232;2023-07-08T04:42:17;21.20;81.90
4461;DHT22;2243;48.812;9.232;2023-07-08T04:44:48;21.20;82.60
4461;DHT22;2243;48.812;9.232;2023-07-08T04:47:20;21.30;83.20
4461;DHT22;2243;48.812;9.232;2023-07-08T04:49:51;21.40;83.40
4461;DHT22;2243;48.812;9.232;2023-07-08T04:52:22;21.50;82.10
4461;DHT22;2243;48.812;9.232;2023-07-08T04:54:53;21.50;84.10
4461;DHT22;2243;48.812;9.232;2023-07-08T04:57:24;21.70;84.60
4461;DHT22;2243;48.812;9.232;2023-07-08T04:59:55;21.80;84.20
4461;DHT22;2243;48.812;9.232;2023-07-08T05:02:26;21.90;81.40
4461;DHT22;2243;48.812;9.232;2023-07-08T05:04:57;22.00;81.40
4461;DHT22;2243;48.812;9.232;2023-07-08T05:07:28;22.00;81.40
4461;DHT22;2243;48.812;9.232;2023-07-08T05:09:59;22.10;79.60
4461;DHT22;2243;48.812;9.232;2023-07-08T05:12:30;22.10;80.50
4461;DHT22;2243;48.812;9.232;2023-07-08T05:15:01;22.10;81.20
4461;DHT22;2243;48.812;9.232;2023-07-08T05:17:34;22.20;80.40
4461;DHT22;2243;48.812;9.232;2023-07-08T05:20:10;22.20;79.90
4461;DHT22;2243;48.812;9.232;2023-07-08T05:22:43;22.20;80.50
4461;DHT22;2243;48.812;9.232;2023-07-08T05:25:15;22.30;77.50
4461;DHT22;2243;48.812;9.232;2023-07-08T05:27:48;22.40;78.90
4461;DHT22;2243;48.812;9.232;2023-07-08T05:30:19;22.40;76.30
4461;DHT22;2243;48.812;9.232;2023-07-08T05:32:50;22.60;75.30
4461;DHT22;2243;48.812;9.232;2023-07-08T05:35:21;22.50;75.30
4461;DHT22;2243;48.812;9.232;2023-07-08T05:37:52;22.50;75.60
4461;DHT22;2243;48.812;9.232;2023-07-08T05:40:23;22.80;79.60
4461;DHT22;2243;48.812;9.232;2023-07-08T05:42:54;23.00;79.80
4461;DHT22;2243;48.812;9.232;2023-07-08T05:45:25;22.90;81.30
4461;DHT22;2243;48.812;9.232;2023-07-08T05:47:56;22.90;81.20
4461;DHT22;2243;48.812;9.232;2023-07-08T05:50:27;23.00;80.80
4461;DHT22;2243;48.812;9.232;2023-07-08T05:52:59;23.00;79.50
4461;DHT22;2243;48.812;9.232;2023-07-08T05:55:31;23.10;81.30
4461;DHT22;2243;48.812;9.232;2023-07-08T05:58:03;23.20;80.30
4461;DHT22;2243;48.812;9.232;2023-07-08T06:00:55;23.20;80.20
4461;DHT22;2243;48.812;9.232;2023-07-08T06:03:28;23.20;77.60
4461;DHT22;2243;48.812;9.232;2023-07-08T06:05:59;23.40;77.80
4461;DHT22;2243;48.812;9.232;2023-07-08T06:08:30;23.50;78.30
4461;DHT22;2243;48.812;9.232;2023-07-08T06:11:01;23.50;76.50
4461;DHT22;2243;48.812;9.232;2023-07-08T06:13:32;23.50;78.00
4461;DHT22;2243;48.812;9.232;2023-07-08T06:16:03;23.50;78.80
4461;DHT22;2243;48.812;9.232;2023-07-08T06:18:35;23.50;78.10
4461;DHT22;2243;48.812;9.232;2023-07-08T06:21:06;23.50;77.70
4461;DHT22;2243;48.812;9.232;2023-07-08T06:23:37;23.50;78.00
4461;DHT22;2243;48.812;9.232;2023-07-08T06:26:09;23.60;77.00
4461;DHT22;2243;48.812;9.232;2023-07-08T06:28:40;23.60;76.70
4461;DHT22;2243;48.812;9.232;2023-07-08T06:31:11;23.70;75.20
4461;DHT22;2243;48.812;9.232;2023-07-08T06:33:42;23.80;74.30
4461;DHT22;2243;48.812;9.232;2023-07-08T06:36:13;23.90;74.40
4461;DHT22;2243;48.812;9.232;2023-07-08T06:38:44;24.20;74.00
4461;DHT22;2243;48.812;9.232;2023-07-08T06:41:15;24.30;73.30
4461;DHT22;2243;48.812;9.232;2023-07-08T06:43:46;24.40;73.50
4461;DHT22;2243;48.812;9.232;2023-07-08T06:46:17;24.50;73.50
4461;DHT22;2243;48.812;9.232;2023-07-08T06:48:50;24.60;72.00
4461;DHT22;2243;48.812;9.232;2023-07-08T06:51:21;24.70;72.80
4461;DHT22;2243;48.812;9.232;2023-07-08T06:53:52;24.80;73.20
4461;DHT22;2243;48.812;9.232;2023-07-08T06:56:23;24.90;73.00
4461;DHT22;2243;48.812;9.232;2023-07-08T06:58:54;25.10;72.40
4461;DHT22;2243;48.812;9.232;2023-07-08T07:01:25;25.30;72.60
4461;DHT22;2243;48.812;9.232;2023-07-08T07:03:56;25.40;72.20
4461;DHT22;2243;48.812;9.232;2023-07-08T07:06:27;25.50;72.00
4461;DHT22;2243;48.812;9.232;2023-07-08T07:08:58;25.60;72.20
4461;DHT22;2243;48.812;9.232;2023-07-08T07:11:29;25.50;71.70
4461;DHT22;2243;48.812;9.232;2023-07-08T07:14:00;25.50;72.30
4461;DHT22;2243;48.812;9.232;2023-07-08T07:16:31;25.50;72.10
4461;DHT22;2243;48.812;9.232;2023-07-08T07:19:02;25.50;72.70
4461;DHT22;2243;48.812;9.232;2023-07-08T07:21:33;25.50;72.80
4461;DHT22;2243;48.812;9.232;2023-07-08T07:24:04;25.60;73.00
4461;DHT22;2243;48.812;9.232;2023-07-08T07:26:37;25.70;72.90
4461;DHT22;2243;48.812;9.232;2023-07-08T07:29:08;25.60;73.10
4461;DHT22;2243;48.812;9.232;2023-07-08T07:31:40;25.70;73.40
4461;DHT22;2243;48.812;9.232;2023-07-08T07:34:11;25.70;73.30
4461;DHT22;2243;48.812;9.232;2023-07-08T07:36:42;25.80;73.80
4461;DHT22;2243;48.812;9.232;2023-07-08T07:39:13;25.90;73.30
4461;DHT22;2243;48.812;9.232;2023-07-08T07:41:44;25.80;73.20
4461;DHT22;2243;48.812;9.232;2023-07-08T07:44:15;25.80;73.90
4461;DHT22;2243;48.812;9.232;2023-07-08T07:46:46;25.80;73.60
4461;DHT22;2243;48.812;9.232;2023-07-08T07:49:17;25.80;73.80
4461;DHT22;2243;48.812;9.232;2023-07-08T07:51:48;25.80;74.10
4461;DHT22;2243;48.812;9.232;2023-07-08T07:54:19;25.80;74.00
4461;DHT22;2243;48.812;9.232;2023-07-08T07:56:51;25.90;74.30
4461;DHT22;2243;48.812;9.232;2023-07-08T07:59:22;26.10;74.00
4461;DHT22;2243;48.812;9.232;2023-07-08T08:01:53;26.20;73.80
4461;DHT22;2243;48.812;9.232;2023-07-08T08:04:24;26.40;73.50
4461;DHT22;2243;48.812;9.232;2023-07-08T08:06:55;26.50;73.10
4461;DHT22;2243;48.812;9.232;2023-07-08T08:09:26;26.60;73.10
4461;DHT22;2243;48.812;9.232;2023-07-08T08:11:57;26.70;72.70
4461;DHT22;2243;48.812;9.232;2023-07-08T08:14:28;26.80;72.30
4461;DHT22;2243;48.812;9.232;2023-07-08T08:16:59;26.80;72.20
4461;DHT22;2243;48.812;9.232;2023-07-08T08:19:31;26.90;72.50
4461;DHT22;2243;48.812;9.232;2023-07-08T08:22:02;27.10;71.80
4461;DHT22;2243;48.812;9.232;2023-07-08T08:24:34;27.10;70.90
4461;DHT22;2243;48.812;9.232;2023-07-08T08:27:05;27.20;70.80
4461;DHT22;2243;48.812;9.232;2023-07-08T08:29:37;27.30;70.70
4461;DHT22;2243;48.812;9.232;2023-07-08T08:32:08;27.40;70.60
4461;DHT22;2243;48.812;9.232;2023-07-08T08:34:39;27.30;70.60
4461;DHT22;2243;48.812;9.232;2023-07-08T08:37:10;27.40;70.40
4461;DHT22;2243;48.812;9.232;2023-07-08T08:39:41;27.40;70.60
4461;DHT22;2243;48.812;9.232;2023-07-08T08:42:28;27.50;70.50
4461;DHT22;2243;48.812;9.232;2023-07-08T08:45:03;27.60;70.40
4461;DHT22;2243;48.812;9.232;2023-07-08T08:47:38;27.70;70.40
4461;DHT22;2243;48.812;9.232;2023-07-08T08:50:28;27.90;70.40
4461;DHT22;2243;48.812;9.232;2023-07-08T08:53:04;27.90;69.60
4461;DHT22;2243;48.812;9.232;2023-07-08T08:55:37;28.00;69.20
4461;DHT22;2243;48.812;9.232;2023-07-08T09:01:12;28.00;69.30
4461;DHT22;2243;48.812;9.232;2023-07-08T09:06:29;28.20;67.40
4461;DHT22;2243;48.812;9.232;2023-07-08T09:09:06;28.20;67.90
4461;DHT22;2243;48.812;9.232;2023-07-08T09:12:04;28.20;68.30
4461;DHT22;2243;48.812;9.232;2023-07-08T09:14:36;28.40;68.80
4461;DHT22;2243;48.812;9.232;2023-07-08T09:20:24;28.40;69.50
4461;DHT22;2243;48.812;9.232;2023-07-08T09:23:13;28.60;68.60
4461;DHT22;2243;48.812;9.232;2023-07-08T09:26:07;28.60;68.30
4461;DHT22;2243;48.812;9.232;2023-07-08T09:28:45;28.70;68.20
4461;DHT22;2243;48.812;9.232;2023-07-08T09:31:30;28.70;68.40
4461;DHT22;2243;48.812;9.232;2023-07-08T09:34:17;28.60;67.90
4461;DHT22;2243;48.812;9.232;2023-07-08T09:36:53;28.60;67.90
4461;DHT22;2243;48.812;9.232;2023-07-08T09:39:24;28.60;67.30
4461;DHT22;2243;48.812;9.232;2023-07-08T09:41:55;28.60;67.00
4461;DHT22;2243;48.812;9.232;2023-07-08T09:44:28;28.70;67.20
4461;DHT22;2243;48.812;9.232;2023-07-08T09:47:00;28.70;66.20
4461;DHT22;2243;48.812;9.232;2023-07-08T09:49:36;28.70;65.50
4461;DHT22;2243;48.812;9.232;2023-07-08T09:52:10;28.70;67.00
4461;DHT22;2243;48.812;9.232;2023-07-08T09:54:42;28.70;67.70
4461;DHT22;2243;48.812;9.232;2023-07-08T09:57:30;28.80;67.60
4461;DHT22;2243;48.812;9.232;2023-07-08T10:00:09;28.80;67.00
4461;DHT22;2243;48.812;9.232;2023-07-08T10:02:55;28.90;67.00
4461;DHT22;2243;48.812;9.232;2023-07-08T10:05:34;29.10;67.10
4461;DHT22;2243;48.812;9.232;2023-07-08T10:08:17;29.20;67.10
4461;DHT22;2243;48.812;9.232;2023-07-08T10:11:03;29.20;66.90
4461;DHT22;2243;48.812;9.232;2023-07-08T10:14:08;29.30;67.00
4461;DHT22;2243;48.812;9.232;2023-07-08T10:16:53;29.30;67.00
4461;DHT22;2243;48.812;9.232;2023-07-08T10:19:24;29.40;66.90
4461;DHT22;2243;48.812;9.232;2023-07-08T10:31:20;29.60;66.30
4461;DHT22;2243;48.812;9.232;2023-07-08T10:34:17;29.50;66.60
4461;DHT22;2243;48.812;9.232;2023-07-08T10:38:09;29.30;67.40
4461;DHT22;2243;48.812;9.232;2023-07-08T10:46:55;28.70;68.50
4461;DHT22;2243;48.812;9.232;2023-07-08T10:49:52;28.80;68.80
4461;DHT22;2243;48.812;9.232;2023-07-08T10:53:00;29.00;68.10
4461;DHT22;2243;48.812;9.232;2023-07-08T10:56:00;29.00;67.80
4461;DHT22;2243;48.812;9.232;2023-07-08T10:59:00;29.00;67.20
4461;DHT22;2243;48.812;9.232;2023-07-08T11:13:53;29.40;66.20
4461;DHT22;2243;48.812;9.232;2023-07-08T11:16:35;29.40;66.50
4461;DHT22;2243;48.812;9.232;2023-07-08T11:19:36;29.40;65.80
4461;DHT22;2243;48.812;9.232;2023-07-08T11:22:12;29.50;65.70
4461;DHT22;2243;48.812;9.232;2023-07-08T11:24:49;29.60;65.80
4461;DHT22;2243;48.812;9.232;2023-07-08T11:27:26;30.30;65.40
4461;DHT22;2243;48.812;9.232;2023-07-08T11:32:39;32.30;61.80
4461;DHT22;2243;48.812;9.232;2023-07-08T11:38:20;33.50;59.50
4461;DHT22;2243;48.812;9.232;2023-07-08T11:41:04;33.60;59.60
4461;DHT22;2243;48.812;9.232;2023-07-08T11:44:12;34.10;58.00
4461;DHT22;2243;48.812;9.232;2023-07-08T11:46:54;34.20;58.90
4461;DHT22;2243;48.812;9.232;2023-07-08T11:49:26;34.50;58.40
4461;DHT22;2243;48.812;9.232;2023-07-08T11:51:58;34.80;57.50
4461;DHT22;2243;48.812;9.232;2023-07-08T11:54:30;34.70;57.30
4461;DHT22;2243;48.812;9.232;2023-07-08T11:57:06;34.90;57.00
4461;DHT22;2243;48.812;9.232;2023-07-08T11:59:46;35.00;57.10
4461;DHT22;2243;48.812;9.232;2023-07-08T12:02:19;34.70;57.30
4461;DHT22;2243;48.812;9.232;2023-07-08T12:05:12;34.50;57.20
4461;DHT22;2243;48.812;9.232;2023-07-08T12:07:48;34.30;57.30
4461;DHT22;2243;48.812;9.232;2023-07-08T12:10:32;34.20;57.30
4461;DHT22;2243;48.812;9.232;2023-07-08T12:13:23;34.30;57.40
4461;DHT22;2243;48.812;9.232;2023-07-08T12:15:56;34.10;57.90
4461;DHT22;2243;48.812;9.232;2023-07-08T12:18:32;33.70;58.90
4461;DHT22;2243;48.812;9.232;2023-07-08T12:21:07;33.60;57.70
4461;DHT22;2243;48.812;9.232;2023-07-08T12:23:44;33.60;57.10
4461;DHT22;2243;48.812;9.232;2023-07-08T12:26:16;33.70;57.50
4461;DHT22;2243;48.812;9.232;2023-07-08T12:28:47;33.60;57.30
4461;DHT22;2243;48.812;9.232;2023-07-08T12:31:21;33.40;57.70
4461;DHT22;2243;48.812;9.232;2023-07-08T12:33:54;33.50;57.70
4461;DHT22;2243;48.812;9.232;2023-07-08T12:36:28;33.50;57.10
4461;DHT22;2243;48.812;9.232;2023-07-08T12:38:59;33.50;57.30
4461;DHT22;2243;48.812;9.232;2023-07-08T12:41:34;33.50;57.30
4461;DHT22;2243;48.812;9.232;2023-07-08T12:44:19;33.60;57.00
4461;DHT22;2243;48.812;9.232;2023-07-08T12:46:53;33.80;57.30
4461;DHT22;2243;48.812;9.232;2023-07-08T12:49:25;34.00;57.50
4461;DHT22;2243;48.812;9.232;2023-07-08T12:51:58;34.20;57.20
4461;DHT22;2243;48.812;9.232;2023-07-08T12:54:29;34.20;56.60
4461;DHT22;2243;48.812;9.232;2023-07-08T12:57:01;34.20;56.40
4461;DHT22;2243;48.812;9.232;2023-07-08T12:59:32;34.20;57.10
4461;DHT22;2243;48.812;9.232;2023-07-08T13:02:07;34.30;56.70
4461;DHT22;2243;48.812;9.232;2023-07-08T13:04:57;34.30;56.50
4461;DHT22;2243;48.812;9.232;2023-07-08T13:07:42;34.50;56.10
4461;DHT22;2243;48.812;9.232;2023-07-08T13:10:21;34.60;55.70
4461;DHT22;2243;48.812;9.232;2023-07-08T13:12:58;34.30;55.80
4461;DHT22;2243;48.812;9.232;2023-07-08T13:15:38;34.40;55.20
4461;DHT22;2243;48.812;9.232;2023-07-08T13:20:53;34.60;55.40
4461;DHT22;2243;48.812;9.232;2023-07-08T13:23:26;34.70;55.20
4461;DHT22;2243;48.812;9.232;2023-07-08T13:25:57;34.70;55.00
4461;DHT22;2243;48.812;9.232;2023-07-08T13:28:36;34.40;55.80
4461;DHT22;2243;48.812;9.232;2023-07-08T13:31:16;34.60;55.50
4461;DHT22;2243;48.812;9.232;2023-07-08T13:33:55;34.60;55.00
4461;DHT22;2243;48.812;9.232;2023-07-08T13:36:32;34.90;55.00
4461;DHT22;2243;48.812;9.232;2023-07-08T13:39:09;35.10;54.80
4461;DHT22;2243;48.812;9.232;2023-07-08T13:41:45;35.10;54.10
4461;DHT22;2243;48.812;9.232;2023-07-08T13:44:16;35.20;54.00
4461;DHT22;2243;48.812;9.232;2023-07-08T13:46:51;34.90;54.50
4461;DHT22;2243;48.812;9.232;2023-07-08T13:49:47;34.90;54.00
4461;DHT22;2243;48.812;9.232;2023-07-08T13:52:21;35.20;53.90
4461;DHT22;2243;48.812;9.232;2023-07-08T13:54:59;35.40;53.70
4461;DHT22;2243;48.812;9.232;2023-07-08T13:57:38;35.40;53.90
4461;DHT22;2243;48.812;9.232;2023-07-08T14:00:10;35.60;53.60
4461;DHT22;2243;48.812;9.232;2023-07-08T14:02:44;35.60;52.50
4461;DHT22;2243;48.812;9.232;2023-07-08T14:05:15;35.40;53.20
4461;DHT22;2243;48.812;9.232;2023-07-08T14:07:50;35.40;53.10
4461;DHT22;2243;48.812;9.232;2023-07-08T14:10:21;35.40;52.70
4461;DHT22;2243;48.812;9.232;2023-07-08T14:12:52;35.40;52.80
4461;DHT22;2243;48.812;9.232;2023-07-08T14:15:23;35.70;53.10
4461;DHT22;2243;48.812;9.232;2023-07-08T14:17:54;36.10;52.80
4461;DHT22;2243;48.812;9.232;2023-07-08T14:20:26;36.00;51.60
4461;DHT22;2243;48.812;9.232;2023-07-08T14:22:58;36.00;51.70
4461;DHT22;2243;48.812;9.232;2023-07-08T14:25:29;36.00;51.70
4461;DHT22;2243;48.812;9.232;2023-07-08T14:28:00;35.90;52.20
4461;DHT22;2243;48.812;9.232;2023-07-08T14:30:41;35.80;52.50
4461;DHT22;2243;48.812;9.232;2023-07-08T14:33:14;35.60;52.90
4461;DHT22;2243;48.812;9.232;2023-07-08T14:35:46;35.60;53.20
4461;DHT22;2243;48.812;9.232;2023-07-08T14:38:17;35.90;52.80
4461;DHT22;2243;48.812;9.232;2023-07-08T14:40:48;35.70;53.00
4461;DHT22;2243;48.812;9.232;2023-07-08T14:43:30;36.00;52.70
4461;DHT22;2243;48.812;9.232;2023-07-08T14:46:03;35.90;53.30
4461;DHT22;2243;48.812;9.232;2023-07-08T14:48:34;36.10;53.10
4461;DHT22;2243;48.812;9.232;2023-07-08T14:51:05;36.10;52.80
4461;DHT22;2243;48.812;9.232;2023-07-08T14:53:36;35.80;52.10
4461;DHT22;2243;48.812;9.232;2023-07-08T14:56:15;35.90;52.70
4461;DHT22;2243;48.812;9.232;2023-07-08T14:58:47;36.00;53.20
4461;DHT22;2243;48.812;9.232;2023-07-08T15:01:20;36.40;52.90
4461;DHT22;2243;48.812;9.232;2023-07-08T15:03:52;36.40;52.90
4461;DHT22;2243;48.812;9.232;2023-07-08T15:06:26;36.30;52.30
4461;DHT22;2243;48.812;9.232;2023-07-08T15:08:58;36.00;52.40
4461;DHT22;2243;48.812;9.232;2023-07-08T15:11:29;35.90;52.40
4461;DHT22;2243;48.812;9.232;2023-07-08T15:14:01;35.40;52.90
4461;DHT22;2243;48.812;9.232;2023-07-08T15:16:33;35.30;53.60
4461;DHT22;2243;48.812;9.232;2023-07-08T15:19:09;35.30;52.80
4461;DHT22;2243;48.812;9.232;2023-07-08T15:21:42;35.30;53.20
4461;DHT22;2243;48.812;9.232;2023-07-08T15:24:13;35.40;53.40
4461;DHT22;2243;48.812;9.232;2023-07-08T15:26:46;35.70;52.70
4461;DHT22;2243;48.812;9.232;2023-07-08T15:29:21;35.60;52.20
4461;DHT22;2243;48.812;9.232;2023-07-08T15:31:53;35.60;53.20
4461;DHT22;2243;48.812;9.232;2023-07-08T15:34:24;35.60;52.50
4461;DHT22;2243;48.812;9.232;2023-07-08T15:36:55;35.80;52.90
4461;DHT22;2243;48.812;9.232;2023-07-08T15:39:26;36.00;52.90
4461;DHT22;2243;48.812;9.232;2023-07-08T15:41:57;35.90;52.40
4461;DHT22;2243;48.812;9.232;2023-07-08T15:44:28;35.80;53.60
4461;DHT22;2243;48.812;9.232;2023-07-08T15:47:00;35.70;53.30
4461;DHT22;2243;48.812;9.232;2023-07-08T15:49:32;35.60;52.90
4461;DHT22;2243;48.812;9.232;2023-07-08T15:52:04;35.50;53.00
4461;DHT22;2243;48.812;9.232;2023-07-08T15:54:37;35.40;53.00
4461;DHT22;2243;48.812;9.232;2023-07-08T15:57:12;35.20;53.30
4461;DHT22;2243;48.812;9.232;2023-07-08T15:59:45;35.40;53.40
4461;DHT22;2243;48.812;9.232;2023-07-08T16:02:27;35.50;53.20
4461;DHT22;2243;48.812;9.232;2023-07-08T16:04:59;35.50;53.00
4461;DHT22;2243;48.812;9.232;2023-07-08T16:07:30;35.30;53.30
4461;DHT22;2243;48.812;9.232;2023-07-08T16:10:01;35.10;54.00
4461;DHT22;2243;48.812;9.232;2023-07-08T16:12:32;35.00;54.00
4461;DHT22;2243;48.812;9.232;2023-07-08T16:15:04;34.70;53.90
4461;DHT22;2243;48.812;9.232;2023-07-08T16:17:36;35.00;54.30
4461;DHT22;2243;48.812;9.232;2023-07-08T16:20:29;35.60;53.80
4461;DHT22;2243;48.812;9.232;2023-07-08T16:23:02;35.70;53.00
4461;DHT22;2243;48.812;9.232;2023-07-08T16:25:39;35.90;52.10
4461;DHT22;2243;48.812;9.232;2023-07-08T16:31:15;36.40;51.70
4461;DHT22;2243;48.812;9.232;2023-07-08T16:33:50;36.50;51.80
4461;DHT22;2243;48.812;9.232;2023-07-08T16:36:24;36.20;51.60
4461;DHT22;2243;48.812;9.232;2023-07-08T16:38:57;36.40;52.00
4461;DHT22;2243;48.812;9.232;2023-07-08T16:41:33;36.90;51.50
4461;DHT22;2243;48.812;9.232;2023-07-08T16:44:15;37.00;51.80
4461;DHT22;2243;48.812;9.232;2023-07-08T16:46:46;37.20;51.90
4461;DHT22;2243;48.812;9.232;2023-07-08T16:49:19;37.10;51.70
4461;DHT22;2243;48.812;9.232;2023-07-08T16:51:49;37.20;51.50
4461;DHT22;2243;48.812;9.232;2023-07-08T16:54:20;37.40;51.90
4461;DHT22;2243;48.812;9.232;2023-07-08T16:56:54;37.70;51.80
4461;DHT22;2243;48.812;9.232;2023-07-08T16:59:25;37.70;50.90
4461;DHT22;2243;48.812;9.232;2023-07-08T17:01:56;37.90;51.20
4461;DHT22;2243;48.812;9.232;2023-07-08T17:04:28;37.90;50.60
4461;DHT22;2243;48.812;9.232;2023-07-08T17:06:59;37.90;51.00
4461;DHT22;2243;48.812;9.232;2023-07-08T17:09:30;37.90;50.90
4461;DHT22;2243;48.812;9.232;2023-07-08T17:12:01;38.00;51.00
4461;DHT22;2243;48.812;9.232;2023-07-08T17:14:33;38.10;50.80
4461;DHT22;2243;48.812;9.232;2023-07-08T17:17:06;38.00;50.90
4461;DHT22;2243;48.812;9.232;2023-07-08T17:19:41;38.10;51.20
4461;DHT22;2243;48.812;9.232;2023-07-08T17:22:12;38.20;51.10
4461;DHT22;2243;48.812;9.232;2023-07-08T17:24:43;38.30;50.90
4461;DHT22;2243;48.812;9.232;2023-07-08T17:27:14;38.50;50.70
4461;DHT22;2243;48.812;9.232;2023-07-08T17:29:45;38.40;50.90
4461;DHT22;2243;48.812;9.232;2023-07-08T17:32:16;38.40;50.60
4461;DHT22;2243;48.812;9.232;2023-07-08T17:34:47;38.40;51.00
4461;DHT22;2243;48.812;9.232;2023-07-08T17:37:18;38.20;50.60